createdAt,value
2023-03-22T00:00:06.473Z,8.27
2023-03-22T00:02:33.874Z,8.30
2023-03-22T00:05:01.398Z,7.70
2023-03-22T00:07:29.343Z,8.07
2023-03-22T00:09:56.632Z,7.67
2023-03-22T00:12:23.903Z,7.80
2023-03-22T00:14:52.147Z,8.27
2023-03-22T00:17:19.816Z,8.50
2023-03-22T00:19:47.409Z,7.03
2023-03-22T00:22:14.777Z,8.27
2023-03-22T00:24:42.179Z,8.33
2023-03-22T00:27:09.485Z,7.57
2023-03-22T00:29:36.800Z,7.70
2023-03-22T00:32:04.344Z,8.10
2023-03-22T00:34:33.189Z,8.07
2023-03-22T00:37:00.685Z,8.53
2023-03-22T00:39:28.049Z,8.57
2023-03-22T00:41:55.826Z,7.53
2023-03-22T00:44:23.172Z,7.47
2023-03-22T00:46:51.048Z,6.90
2023-03-22T00:49:18.902Z,7.67
2023-03-22T00:51:46.588Z,7.30
2023-03-22T00:54:14.634Z,8.00
2023-03-22T00:56:45.491Z,7.67
2023-03-22T00:59:14.498Z,8.07
2023-03-22T01:01:43.207Z,7.70
2023-03-22T01:04:18.029Z,7.53
2023-03-22T01:06:47.161Z,8.27
2023-03-22T01:09:14.996Z,8.53
2023-03-22T01:11:43.424Z,7.13
2023-03-22T01:14:13.675Z,6.97
2023-03-22T01:16:41.096Z,7.77
2023-03-22T01:19:09.124Z,7.50
2023-03-22T01:21:36.521Z,7.73
2023-03-22T01:24:04.044Z,8.53
2023-03-22T01:26:31.420Z,7.77
2023-03-22T01:28:58.724Z,8.57
2023-03-22T01:31:26.127Z,7.80
2023-03-22T01:33:53.445Z,7.30
2023-03-22T01:36:22.898Z,8.20
2023-03-22T01:38:50.705Z,8.77
2023-03-22T01:41:18.159Z,7.70
2023-03-22T01:43:46.274Z,7.47
2023-03-22T01:46:13.670Z,7.97
2023-03-22T01:48:45.920Z,7.57
2023-03-22T01:51:18.726Z,8.23
2023-03-22T01:54:04.182Z,8.43
2023-03-22T01:56:33.147Z,7.90
2023-03-22T01:59:01.077Z,7.63
2023-03-22T02:01:38.590Z,7.97
2023-03-22T02:04:20.024Z,8.00
2023-03-22T02:06:48.264Z,8.37
2023-03-22T02:09:21.969Z,8.07
2023-03-22T02:11:54.057Z,8.00
2023-03-22T02:14:43.217Z,8.33
2023-03-22T02:18:06.261Z,8.40
2023-03-22T02:21:02.618Z,7.70
2023-03-22T02:23:40.597Z,9.13
2023-03-22T02:26:35.953Z,8.33
2023-03-22T02:29:03.490Z,9.03
2023-03-22T02:31:49.887Z,7.70
2023-03-22T02:34:17.489Z,9.23
2023-03-22T02:36:52.854Z,9.27
2023-03-22T02:39:32.140Z,7.67
2023-03-22T02:42:15.101Z,8.93
2023-03-22T02:44:45.030Z,8.33
2023-03-22T02:47:20.694Z,9.37
2023-03-22T02:49:54.967Z,8.37
2023-03-22T02:52:41.062Z,9.03
2023-03-22T02:55:18.862Z,8.23
2023-03-22T02:57:50.777Z,8.80
2023-03-22T03:00:19.356Z,9.13
2023-03-22T03:02:50.243Z,9.13
2023-03-22T03:05:19.039Z,8.30
2023-03-22T03:07:49.105Z,9.50
2023-03-22T03:10:17.944Z,8.87
2023-03-22T03:12:45.865Z,7.83
2023-03-22T03:15:15.447Z,8.73
2023-03-22T03:17:52.954Z,8.77
2023-03-22T03:20:44.324Z,8.40
2023-03-22T03:23:32.801Z,8.10
2023-03-22T03:26:08.981Z,8.77
2023-03-22T03:28:39.143Z,8.33
2023-03-22T03:31:11.136Z,7.30
2023-03-22T03:33:45.677Z,7.77
2023-03-22T03:36:15.730Z,8.77
2023-03-22T03:38:44.873Z,8.70
2023-03-22T03:41:14.848Z,8.40
2023-03-22T03:43:43.159Z,7.17
2023-03-22T03:46:11.282Z,9.00
2023-03-22T03:48:39.767Z,8.03
2023-03-22T03:51:07.483Z,9.87
2023-03-22T03:53:35.284Z,9.17
2023-03-22T03:56:02.683Z,8.70
2023-03-22T03:58:37.184Z,8.83
2023-03-22T04:01:05.143Z,10.10
2023-03-22T04:04:09.546Z,9.07
2023-03-22T04:06:43.915Z,8.80
2023-03-22T04:09:17.517Z,9.23
2023-03-22T04:11:49.343Z,8.50
2023-03-22T04:14:17.557Z,9.43
2023-03-22T04:16:48.209Z,8.40
2023-03-22T04:19:20.054Z,9.23
2023-03-22T04:21:47.543Z,8.77
2023-03-22T04:24:15.682Z,9.63
2023-03-22T04:26:45.795Z,9.13
2023-03-22T04:29:24.646Z,10.43
2023-03-22T04:31:57.742Z,8.97
2023-03-22T04:34:41.646Z,10.03
2023-03-22T04:37:14.738Z,9.53
2023-03-22T04:39:49.373Z,10.00
2023-03-22T04:42:30.223Z,10.23
2023-03-22T04:45:06.423Z,11.90
2023-03-22T04:47:35.266Z,9.80
2023-03-22T04:50:06.922Z,10.93
2023-03-22T04:52:39.416Z,10.40
2023-03-22T04:55:07.447Z,10.03
2023-03-22T04:57:35.758Z,10.60
2023-03-22T05:00:06.705Z,10.93
2023-03-22T05:02:34.170Z,10.33
2023-03-22T05:05:01.807Z,10.20
2023-03-22T05:07:39.400Z,11.70
2023-03-22T05:10:09.303Z,11.00
2023-03-22T05:12:36.731Z,11.87
2023-03-22T05:15:16.473Z,11.30
2023-03-22T05:17:44.351Z,11.37
2023-03-22T05:20:11.952Z,10.73
2023-03-22T05:22:41.486Z,12.05
2023-03-22T05:25:11.676Z,11.33
2023-03-22T05:27:42.934Z,11.07
2023-03-22T05:30:39.733Z,10.53
2023-03-22T05:33:24.416Z,10.03
2023-03-22T05:35:55.544Z,10.63
2023-03-22T05:38:24.716Z,12.68
2023-03-22T05:40:55.002Z,11.30
2023-03-22T05:43:23.232Z,10.53
2023-03-22T05:45:51.705Z,11.37
2023-03-22T05:48:42.155Z,11.50
2023-03-22T05:51:18.178Z,9.40
2023-03-22T05:53:49.443Z,9.70
2023-03-22T05:56:24.489Z,10.57
2023-03-22T05:58:58.144Z,10.77
2023-03-22T06:01:25.861Z,10.87
2023-03-22T06:04:09.672Z,9.47
2023-03-22T06:06:55.532Z,9.83
2023-03-22T06:09:41.665Z,9.63
2023-03-22T06:12:13.311Z,9.07
2023-03-22T06:14:41.254Z,9.53
2023-03-22T06:17:18.460Z,9.67
2023-03-22T06:19:54.816Z,9.67
2023-03-22T06:22:24.678Z,9.37
2023-03-22T06:24:53.107Z,9.60
2023-03-22T06:27:30.585Z,9.27
2023-03-22T06:29:58.068Z,8.40
2023-03-22T06:32:27.105Z,9.57
2023-03-22T06:34:56.232Z,11.90
2023-03-22T06:37:24.770Z,8.30
2023-03-22T06:39:52.623Z,7.00
2023-03-22T06:42:22.602Z,7.70
2023-03-22T06:45:01.125Z,8.07
2023-03-22T06:47:32.433Z,8.43
2023-03-22T06:50:18.480Z,7.73
2023-03-22T06:53:06.435Z,7.93
2023-03-22T06:55:34.979Z,8.20
2023-03-22T06:58:11.483Z,6.90
2023-03-22T07:00:39.562Z,8.27
2023-03-22T07:03:08.364Z,6.47
2023-03-22T07:05:42.194Z,6.73
2023-03-22T07:08:09.800Z,6.57
2023-03-22T07:10:43.782Z,6.30
2023-03-22T07:13:11.565Z,6.80
2023-03-22T07:15:39.201Z,7.93
2023-03-22T07:18:14.495Z,5.73
2023-03-22T07:20:42.621Z,5.70
2023-03-22T07:23:10.934Z,5.90
2023-03-22T07:25:46.763Z,5.63
2023-03-22T07:28:23.127Z,6.27
2023-03-22T07:30:59.711Z,5.53
2023-03-22T07:33:27.582Z,5.80
2023-03-22T07:35:56.601Z,4.90
2023-03-22T07:38:24.401Z,5.40
2023-03-22T07:40:55.085Z,5.60
2023-03-22T07:43:26.222Z,4.50
2023-03-22T07:46:04.952Z,4.67
2023-03-22T07:48:52.419Z,5.00
2023-03-22T07:51:51.995Z,4.53
2023-03-22T07:54:32.560Z,4.33
2023-03-22T07:57:01.699Z,4.90
2023-03-22T07:59:29.574Z,5.03
2023-03-22T08:01:57.068Z,5.87
2023-03-22T08:04:35.965Z,5.27
2023-03-22T08:07:13.786Z,5.20
2023-03-22T08:09:41.722Z,5.53
2023-03-22T08:12:09.218Z,5.53
2023-03-22T08:14:37.664Z,6.10
2023-03-22T08:17:09.791Z,4.90
2023-03-22T08:19:37.282Z,5.70
2023-03-22T08:22:06.808Z,5.33
2023-03-22T08:25:00.682Z,7.33
2023-03-22T08:27:31.596Z,5.80
2023-03-22T08:30:00.879Z,6.10
2023-03-22T08:32:28.482Z,5.20
2023-03-22T08:34:56.097Z,4.43
2023-03-22T08:37:23.684Z,4.73
2023-03-22T08:39:51.429Z,4.83
2023-03-22T08:42:22.106Z,3.97
2023-03-22T08:44:51.954Z,4.47
2023-03-22T08:47:21.556Z,4.27
2023-03-22T08:49:52.793Z,4.83
2023-03-22T08:52:25.857Z,4.10
2023-03-22T08:55:04.507Z,5.57
2023-03-22T08:57:51.584Z,4.47
2023-03-22T09:00:42.465Z,4.40
2023-03-22T09:03:24.898Z,4.00
2023-03-22T09:05:52.715Z,4.93
2023-03-22T09:08:20.704Z,4.87
2023-03-22T09:10:53.862Z,3.97
2023-03-22T09:13:23.218Z,4.90
2023-03-22T09:15:57.717Z,4.50
2023-03-22T09:18:28.402Z,4.53
2023-03-22T09:20:59.831Z,4.63
2023-03-22T09:23:34.116Z,4.57
2023-03-22T09:26:02.355Z,4.90
2023-03-22T09:28:31.379Z,4.40
2023-03-22T09:31:06.908Z,4.17
2023-03-22T09:33:36.114Z,3.43
2023-03-22T09:36:03.629Z,3.23
2023-03-22T09:38:36.609Z,3.70
2023-03-22T09:41:06.991Z,3.30
2023-03-22T09:43:38.173Z,3.13
2023-03-22T09:46:09.546Z,3.10
2023-03-22T09:48:41.872Z,3.30
2023-03-22T09:51:18.201Z,3.10
2023-03-22T09:53:45.724Z,3.33
2023-03-22T09:56:23.181Z,3.30
2023-03-22T09:58:56.506Z,4.20
2023-03-22T10:01:39.338Z,3.53
2023-03-22T10:04:16.680Z,3.80
2023-03-22T10:06:46.104Z,4.00
2023-03-22T10:09:33.482Z,2.90
2023-03-22T10:12:03.857Z,3.17
2023-03-22T10:14:42.581Z,2.93
2023-03-22T10:17:15.891Z,2.90
2023-03-22T10:19:51.308Z,3.33
2023-03-22T10:22:20.398Z,2.47
2023-03-22T10:24:50.311Z,3.33
2023-03-22T10:27:19.560Z,2.60
2023-03-22T10:30:07.580Z,2.60
2023-03-22T10:32:54.809Z,2.53
2023-03-22T10:35:24.457Z,2.60
2023-03-22T10:37:52.900Z,4.10
2023-03-22T10:40:21.494Z,3.07
2023-03-22T10:43:00.864Z,2.77
2023-03-22T10:45:28.507Z,2.47
2023-03-22T10:47:57.911Z,3.10
2023-03-22T10:50:28.673Z,2.57
2023-03-22T10:52:56.693Z,2.10
2023-03-22T10:55:25.025Z,2.73
2023-03-22T10:57:56.971Z,2.77
2023-03-22T11:00:25.912Z,4.17
2023-03-22T11:02:54.637Z,2.60
2023-03-22T11:05:26.599Z,2.27
2023-03-22T11:07:54.085Z,2.63
2023-03-22T11:10:34.541Z,2.70
2023-03-22T11:13:12.581Z,2.87
2023-03-22T11:15:41.446Z,2.27
2023-03-22T11:18:12.567Z,2.27
2023-03-22T11:20:42.266Z,2.53
2023-03-22T11:23:13.924Z,2.33
2023-03-22T11:25:46.122Z,2.57
2023-03-22T11:28:26.860Z,2.10
2023-03-22T11:31:02.507Z,2.30
2023-03-22T11:33:30.393Z,2.83
2023-03-22T11:35:59.005Z,2.83
2023-03-22T11:38:29.756Z,2.50
2023-03-22T11:41:01.933Z,2.27
2023-03-22T11:43:33.988Z,2.70
2023-03-22T11:46:01.993Z,2.50
2023-03-22T11:48:31.702Z,2.67
2023-03-22T11:51:04.317Z,2.50
2023-03-22T11:53:33.856Z,2.63
2023-03-22T11:56:02.713Z,2.50
2023-03-22T11:58:43.740Z,1.93
2023-03-22T12:01:14.255Z,2.70
2023-03-22T12:03:43.311Z,2.30
2023-03-22T12:06:21.009Z,2.50
2023-03-22T12:09:01.192Z,2.80
2023-03-22T12:11:33.229Z,2.57
2023-03-22T12:14:03.814Z,2.43
2023-03-22T12:16:41.018Z,2.63
2023-03-22T12:19:11.258Z,2.67
2023-03-22T12:21:38.680Z,2.53
2023-03-22T12:24:12.371Z,2.90
2023-03-22T12:26:40.101Z,2.90
2023-03-22T12:29:16.931Z,3.40
2023-03-22T12:31:52.597Z,2.90
2023-03-22T12:34:22.053Z,2.77
2023-03-22T12:36:51.635Z,3.17
2023-03-22T12:39:31.271Z,2.80
2023-03-22T12:42:01.949Z,3.63
2023-03-22T12:44:40.292Z,3.00
2023-03-22T12:47:13.538Z,2.53
2023-03-22T12:49:44.085Z,3.00
2023-03-22T12:52:14.551Z,2.83
2023-03-22T12:54:42.202Z,3.37
2023-03-22T12:57:10.289Z,2.90
2023-03-22T12:59:37.830Z,2.83
2023-03-22T13:02:27.308Z,3.23
2023-03-22T13:04:56.795Z,3.17
2023-03-22T13:07:38.456Z,2.50
2023-03-22T13:10:24.730Z,2.37
2023-03-22T13:13:12.201Z,2.30
2023-03-22T13:15:42.634Z,2.57
2023-03-22T13:18:32.632Z,2.93
2023-03-22T13:21:16.941Z,2.83
2023-03-22T13:24:04.726Z,2.97
2023-03-22T13:26:32.674Z,2.23
2023-03-22T13:29:01.433Z,2.40
2023-03-22T13:31:41.227Z,2.83
2023-03-22T13:34:19.734Z,2.40
2023-03-22T13:36:52.405Z,2.47
2023-03-22T13:39:22.917Z,2.60
2023-03-22T13:42:01.268Z,2.70
2023-03-22T13:44:36.964Z,3.07
2023-03-22T13:47:04.772Z,3.20
2023-03-22T13:49:44.886Z,2.33
2023-03-22T13:52:23.595Z,1.47
2023-03-22T13:54:52.608Z,1.90
2023-03-22T13:57:40.933Z,1.93
2023-03-22T14:00:20.537Z,2.03
2023-03-22T14:02:49.577Z,1.70
2023-03-22T14:05:19.187Z,2.40
2023-03-22T14:07:53.793Z,1.73
2023-03-22T14:10:41.873Z,1.47
2023-03-22T14:13:17.275Z,2.20
2023-03-22T14:15:51.201Z,1.80
2023-03-22T14:18:22.133Z,1.53
2023-03-22T14:21:00.460Z,1.80
